Cannon Air Force Base
KCVS : now visible

Airfield :











YOU CAN JOIN US ON...

 
LOGIN :

Register | Disclaimer

   EN    FR    IT 

 









Legend :    VFR   Marginal VFR   IFR   Intensive IFR   Very Intensive IFR
Visi :
Ceiling :
>= 8 km
>= 3000ft
5 to 8 km
1000 to 3000 ft
1500m to 5 km
500 to 1000 ft
800 to 1500m
200 to 500 ft
< 800m
< 200 ft
Symbols :   Thunderstorms  Fog  Heavy snow  Heavy precipitations  Wind > 20 kt







- Airport Elevation : 4295 ft


KCVS - Cannon Air Force Base

CURRENT METAR :
  • 201158Z AUTO 14012KT 10SM OVC010 17/14 A2976 RMK AO2 CIG 009 RWY22 CIG 009 RWY31 SLP022 T01660144 10167 20147 58008 $

EXPIRED METARs :
  • 201058Z AUTO 15016KT 10SM OVC013 17/13 A2977 RMK AO2 SLP026 T01650130 $
  • 201028Z AUTO 16016KT 10SM OVC014 17/13 A2978 RMK AO2 SLP029 $
  • 200958Z AUTO 16014KT 10SM OVC017 16/12 A2979 RMK AO2 CIG 016 RWY31 SLP033 T01630116 $
  • 200938Z AUTO 15015KT 10SM BKN018 OVC025 16/11 A2979 RMK AO2 CIG 018V025 BKN V SCT CIG 017 RWY31 SLP033 $
  • 200908Z AUTO 14014G23KT 10SM BKN023 16/11 A2979 RMK AO2 LTG DSNT N SLP033 $

TAF TAF KCVS
Valid from the 20 at 10:00 until the 21 at 16:00 UTC


201000Z 2010/2116 15012G18KT 9999 OVC020 QNH2975INS
BECMG 2011/2012 17012G18KT 9999 NSW BKN010 QNH2975INS
BECMG 2013/2014 18015G25KT 9999 SCT015 BKN150 QNH2964INS
BECMG 2020/2021 21020G35KT 9999 BKN150 QNH2959INS
BECMG 2023/2024 24015G25KT 9999 FEW120 BKN150 QNH2957INS
BECMG 2101/2102 25010G15KT 9000 -SHRA BKN100 OVC150 QNH2958INS
BECMG 2106/2107 25015KT 9999 NSW FEW150 QNH2961INS
BECMG 2112/2113 25020G30KT 9999 SKC QNH2961INS TX26/2021Z TN09/2110Z
KZAB FIR / North America



MET'MAP, your aeronautical weather chart ! - Copyright ORBIFLY December 2007 - Disclaimer

ORBIFLY MET'MAP TEAM :

Programming & Development : Alexandra Zaïnal
Concept & Development : Baudouin d'Aumeries
Co-Development & Prog : Marc-Olivier Méhu
Technical & hardware support : Manuel Goepfert

Contact : metmap@orbifly.com




SOURCES & CREDITS :

   NOAA       Earth
Advisory